Time;durP1;ratioP1;P1;durP2;ratioP2;P2;SDS_P1;SDS_P2;PMS_P1;PMS_P2;Temp;Humidity;BMP_temperature;BMP_pressure;BME280_temperature;BME280_humidity;BME280_pressure;Samples;Min_cycle;Max_cycle;Signal;HPM_P1;HPM_P2
2021/04/18 00:01:49;;;;;;;9.03;8.23;;;;;;;7.99;63.37;95754.03;5030780;28;20202;-80
2021/04/18 00:04:15;;;;;;;9.47;8.33;;;;;;;7.91;63.68;95757.34;5030284;28;20222;-81
2021/04/18 00:06:41;;;;;;;9.70;8.80;;;;;;;7.89;63.62;95754.13;5030830;28;20209;-82
2021/04/18 00:09:10;;;;;;;10.43;9.53;;;;;;;7.93;63.22;95744.38;5029951;28;20202;-80
2021/04/18 00:11:37;;;;;;;9.67;8.77;;;;;;;7.93;63.74;95755.44;5029869;28;20264;-81
2021/04/18 00:14:03;;;;;;;9.77;8.87;;;;;;;7.94;63.43;95743.41;5030313;28;20831;-81
2021/04/18 00:16:29;;;;;;;8.90;8.10;;;;;;;7.93;63.60;95741.81;5030738;28;20198;-81
2021/04/18 00:18:55;;;;;;;10.00;9.10;;;;;;;7.94;63.30;95741.66;5030469;28;20241;-81
2021/04/18 00:21:21;;;;;;;10.17;9.13;;;;;;;7.97;63.24;95743.13;5030793;28;20206;-81
2021/04/18 00:23:47;;;;;;;9.63;8.83;;;;;;;7.95;63.93;95739.91;5030506;28;20202;-81
2021/04/18 00:26:14;;;;;;;9.87;9.00;;;;;;;7.96;63.47;95732.06;5030937;28;20308;-79
2021/04/18 00:28:40;;;;;;;10.33;9.40;;;;;;;7.92;64.10;95740.22;5030165;28;20206;-80
2021/04/18 00:31:06;;;;;;;10.30;9.23;;;;;;;7.90;63.92;95734.44;5029712;28;20288;-81
2021/04/18 00:33:32;;;;;;;9.90;9.00;;;;;;;7.88;64.08;95726.13;5029823;28;20209;-80
2021/04/18 00:35:58;;;;;;;10.50;9.37;;;;;;;7.91;64.18;95731.72;5030108;28;20226;-84
2021/04/18 00:38:24;;;;;;;10.40;9.40;;;;;;;7.91;63.67;95723.22;5030145;28;20210;-81
2021/04/18 00:40:50;;;;;;;10.30;9.40;;;;;;;7.89;63.98;95728.50;5029355;28;20205;-80
2021/04/18 00:43:17;;;;;;;10.23;9.33;;;;;;;7.89;64.39;95732.81;5029852;28;20205;-81
2021/04/18 00:45:43;;;;;;;10.37;9.37;;;;;;;7.89;64.43;95723.38;5029896;28;20237;-81
2021/04/18 00:48:09;;;;;;;10.53;9.57;;;;;;;7.88;64.05;95721.81;5029871;28;20233;-81
2021/04/18 00:50:38;;;;;;;11.03;10.03;;;;;;;7.91;63.86;95728.34;5029445;28;20202;-81
2021/04/18 00:53:07;;;;;;;10.90;9.90;;;;;;;7.89;64.03;95732.81;5029532;28;20210;-80
2021/04/18 00:55:34;;;;;;;11.10;10.07;;;;;;;7.88;64.01;95731.25;5029585;28;20218;-81
2021/04/18 00:58:00;;;;;;;11.63;10.53;;;;;;;7.87;64.39;95724.53;5030493;28;20205;-82
2021/04/18 01:00:28;;;;;;;11.43;10.40;;;;;;;7.89;64.06;95725.94;5030135;28;20206;-80
2021/04/18 01:02:54;;;;;;;10.70;9.80;;;;;;;7.88;64.35;95733.81;5031002;28;20198;-81
2021/04/18 01:05:20;;;;;;;10.73;9.83;;;;;;;7.88;64.51;95728.69;5033923;28;20218;-82
2021/04/18 01:07:47;;;;;;;11.27;10.27;;;;;;;7.80;65.02;95731.22;5034086;28;20208;-81
2021/04/18 01:10:17;;;;;;;10.97;9.97;;;;;;;7.79;64.72;95730.41;5032768;28;20240;-81
2021/04/18 01:12:45;;;;;;;11.03;10.03;;;;;;;7.77;65.04;95727.19;5034085;28;20784;-80
2021/04/18 01:15:12;;;;;;;11.07;10.00;;;;;;;7.75;65.31;95726.53;5033866;28;20284;-80
2021/04/18 01:17:39;;;;;;;11.63;10.63;;;;;;;7.73;65.23;95722.53;5034176;28;20199;-80
2021/04/18 01:20:08;;;;;;;11.77;10.73;;;;;;;7.74;65.15;95719.00;5033087;28;20199;-81
2021/04/18 01:22:35;;;;;;;12.43;11.23;;;;;;;7.69;65.61;95716.13;5033721;28;20766;-81
2021/04/18 01:25:01;;;;;;;12.30;11.10;;;;;;;7.69;65.47;95711.00;5033328;28;20230;-80
2021/04/18 01:27:27;;;;;;;11.67;10.53;;;;;;;7.63;65.34;95710.66;5034354;28;20583;-81
2021/04/18 01:29:53;;;;;;;12.23;10.63;;;;;;;7.62;66.08;95703.13;5033238;28;20280;-80
2021/04/18 01:32:22;;;;;;;11.20;10.20;;;;;;;7.62;65.54;95710.81;5033439;28;20577;-79
2021/04/18 01:34:49;;;;;;;11.37;10.33;;;;;;;7.58;65.85;95709.50;5032777;28;20269;-81
2021/04/18 01:37:18;;;;;;;12.23;11.03;;;;;;;7.58;66.13;95710.31;5033441;28;20209;-79
2021/04/18 01:39:45;;;;;;;11.80;10.70;;;;;;;7.59;65.94;95708.56;5033331;28;20209;-80
2021/04/18 01:42:12;;;;;;;11.63;10.63;;;;;;;7.57;66.06;95708.72;5033812;28;20224;-79
2021/04/18 01:44:38;;;;;;;11.83;10.73;;;;;;;7.57;65.94;95716.41;5032547;28;20229;-82
2021/04/18 01:47:05;;;;;;;12.33;11.13;;;;;;;7.59;65.88;95716.25;5033320;28;20202;-82
2021/04/18 01:49:31;;;;;;;12.40;11.23;;;;;;;7.59;65.96;95711.13;5032910;28;20577;-81
2021/04/18 01:51:57;;;;;;;12.87;11.67;;;;;;;7.56;65.87;95708.88;5032701;28;20210;-82
2021/04/18 01:54:23;;;;;;;12.30;11.10;;;;;;;7.56;66.35;95707.09;5033133;28;20625;-80
2021/04/18 01:56:50;;;;;;;12.13;11.03;;;;;;;7.49;66.49;95718.94;5033076;28;20197;-81
2021/04/18 01:59:16;;;;;;;12.30;11.20;;;;;;;7.49;66.31;95716.38;5032269;28;20202;-81
2021/04/18 02:01:42;;;;;;;11.93;10.93;;;;;;;7.53;66.47;95719.41;5032793;28;20208;-80
2021/04/18 02:04:20;;;;;;;11.60;10.50;;;;;;;7.39;66.63;95714.88;5032648;28;20249;-81
2021/04/18 02:06:46;;;;;;;12.20;11.00;;;;;;;7.41;66.32;95713.78;5032959;28;20206;-80
2021/04/18 02:09:12;;;;;;;12.30;11.10;;;;;;;7.37;67.45;95717.59;5032624;28;20194;-80
2021/04/18 02:11:39;;;;;;;12.27;11.17;;;;;;;7.42;66.61;95719.69;5032014;28;20234;-82
2021/04/18 02:14:06;;;;;;;13.07;11.80;;;;;;;7.44;66.72;95713.47;5032242;28;20387;-81
2021/04/18 02:16:32;;;;;;;12.57;11.27;;;;;;;7.49;66.55;95707.91;5032574;28;20190;-82
2021/04/18 02:18:58;;;;;;;12.10;10.90;;;;;;;7.50;66.64;95709.50;5033057;28;20213;-81
2021/04/18 02:21:24;;;;;;;12.73;11.53;;;;;;;7.47;67.16;95714.94;5032261;28;20316;-82
2021/04/18 02:23:50;;;;;;;12.13;11.03;;;;;;;7.43;67.25;95714.44;5032486;28;20206;-81
2021/04/18 02:26:16;;;;;;;13.07;11.80;;;;;;;7.18;68.17;95713.50;5031971;28;20226;-81
2021/04/18 02:28:42;;;;;;;12.27;11.13;;;;;;;7.19;67.99;95704.88;5032927;28;20728;-80
2021/04/18 02:31:08;;;;;;;12.20;11.10;;;;;;;7.23;67.94;95707.94;5032041;28;20201;-81
2021/04/18 02:33:34;;;;;;;13.43;12.13;;;;;;;7.26;67.93;95711.00;5032606;28;20833;-80
2021/04/18 02:36:00;;;;;;;13.10;11.90;;;;;;;7.34;67.82;95710.22;5031826;28;20245;-80
2021/04/18 02:38:27;;;;;;;12.37;11.17;;;;;;;7.38;67.10;95706.38;5032013;28;20216;-80
2021/04/18 02:40:53;;;;;;;12.87;11.67;;;;;;;7.41;67.32;95705.28;5031592;28;20205;-81
2021/04/18 02:43:19;;;;;;;12.60;11.43;;;;;;;7.44;66.87;95703.22;5032135;28;20584;-80
2021/04/18 02:45:45;;;;;;;12.77;11.50;;;;;;;7.45;67.27;95709.97;5031323;28;20288;-80
2021/04/18 02:48:12;;;;;;;12.63;11.37;;;;;;;7.41;67.47;95710.41;5031581;28;20230;-79
2021/04/18 02:50:38;;;;;;;13.07;11.87;;;;;;;7.41;66.84;95702.72;5031661;28;20194;-80
2021/04/18 02:53:04;;;;;;;12.93;11.73;;;;;;;7.41;66.87;95705.28;5032466;28;20206;-81
2021/04/18 02:55:30;;;;;;;13.23;11.93;;;;;;;7.38;67.12;95703.03;5031959;28;20712;-82
2021/04/18 02:57:56;;;;;;;12.83;11.63;;;;;;;7.35;67.87;95705.88;5032158;28;20234;-81
2021/04/18 03:00:22;;;;;;;13.47;12.20;;;;;;;7.34;67.66;95707.66;5031653;28;20225;-81
2021/04/18 03:02:48;;;;;;;13.27;12.07;;;;;;;7.39;67.25;95702.06;5031493;28;20198;-81
2021/04/18 03:05:15;;;;;;;13.30;12.10;;;;;;;7.28;67.90;95701.41;5031704;28;20533;-81
2021/04/18 03:07:41;;;;;;;13.50;12.10;;;;;;;7.25;67.87;95694.03;5031240;28;20217;-80
2021/04/18 03:10:09;;;;;;;13.63;12.33;;;;;;;7.23;67.94;95695.13;5030802;28;20230;-80
2021/04/18 03:12:35;;;;;;;13.17;11.73;;;;;;;7.23;67.97;95698.50;5031564;28;20452;-82
2021/04/18 03:15:01;;;;;;;13.70;12.40;;;;;;;7.30;67.50;95695.31;5031891;28;20222;-81
2021/04/18 03:17:27;;;;;;;14.73;13.23;;;;;;;7.19;67.98;95696.38;5031680;28;20584;-80
2021/04/18 03:19:53;;;;;;;13.13;11.93;;;;;;;7.23;68.35;95703.59;5031709;28;20287;-81
2021/04/18 03:22:20;;;;;;;13.77;12.37;;;;;;;7.21;68.39;95697.84;5031350;28;20190;-80
2021/04/18 03:24:46;;;;;;;13.20;12.00;;;;;;;7.19;68.50;95697.19;5031332;28;20600;-81
2021/04/18 03:27:12;;;;;;;13.83;12.53;;;;;;;7.15;69.11;95697.63;5030965;28;20194;-80
2021/04/18 03:29:38;;;;;;;14.10;12.70;;;;;;;7.13;69.29;95691.84;5031157;28;20622;-81
2021/04/18 03:32:04;;;;;;;14.30;12.90;;;;;;;7.07;69.24;95695.03;5030969;28;20194;-80
2021/04/18 03:34:30;;;;;;;14.20;12.90;;;;;;;7.14;68.76;95699.38;5031983;28;20222;-82
2021/04/18 03:36:58;;;;;;;13.83;12.53;;;;;;;7.19;68.86;95694.63;5031359;28;20228;-80
2021/04/18 03:39:24;;;;;;;13.43;12.13;;;;;;;7.12;69.59;95697.97;5031518;28;20202;-81
2021/04/18 03:41:50;;;;;;;13.87;12.57;;;;;;;7.07;69.49;95703.53;5030899;28;20573;-81
2021/04/18 03:44:16;;;;;;;13.40;12.20;;;;;;;7.09;68.98;95698.25;5031051;28;20257;-81
2021/04/18 03:46:43;;;;;;;13.03;11.83;;;;;;;7.06;69.96;95706.25;5030570;28;20218;-81
2021/04/18 03:49:09;;;;;;;13.67;12.37;;;;;;;7.11;69.28;95698.91;5030947;28;20264;-82
2021/04/18 03:51:35;;;;;;;14.30;12.97;;;;;;;7.14;68.97;95707.06;5030668;28;20217;-82
2021/04/18 03:54:01;;;;;;;13.53;12.23;;;;;;;7.18;69.00;95703.25;5030498;28;20593;-81
2021/04/18 03:56:27;;;;;;;13.57;12.17;;;;;;;7.17;69.43;95696.53;5031175;28;20284;-81
2021/04/18 03:58:53;;;;;;;14.50;13.10;;;;;;;7.20;68.81;95695.44;5030989;28;20264;-82
2021/04/18 04:01:19;;;;;;;13.83;12.50;;;;;;;7.23;69.11;95695.13;5030515;28;20202;-81
2021/04/18 04:03:45;;;;;;;13.83;12.53;;;;;;;7.17;69.07;95699.09;5030538;28;20193;-81
2021/04/18 04:06:11;;;;;;;14.23;12.83;;;;;;;7.10;69.65;95697.31;5030327;28;20213;-81
2021/04/18 04:08:37;;;;;;;14.93;13.53;;;;;;;7.08;69.75;95697.47;5030315;28;20190;-81
2021/04/18 04:11:03;;;;;;;14.80;13.27;;;;;;;7.17;69.17;95693.97;5029915;28;20274;-80
2021/04/18 04:13:30;;;;;;;13.67;12.47;;;;;;;7.23;69.02;95693.38;5031467;28;20202;-82
2021/04/18 04:15:56;;;;;;;14.33;12.97;;;;;;;7.16;70.10;95694.13;5030451;28;20222;-82
2021/04/18 04:18:22;;;;;;;15.30;13.80;;;;;;;7.13;69.91;95704.66;5030822;28;20229;-81
2021/04/18 04:20:48;;;;;;;14.13;12.73;;;;;;;7.11;69.85;95699.72;5030293;28;20313;-80
2021/04/18 04:23:14;;;;;;;14.13;12.73;;;;;;;7.07;69.73;95695.84;5030453;28;20202;-81
2021/04/18 04:25:40;;;;;;;14.57;13.20;;;;;;;7.14;69.53;95699.38;5030237;28;20226;-80
2021/04/18 04:28:07;;;;;;;14.97;13.57;;;;;;;7.06;70.43;95698.56;5013304;28;20198;-81
2021/04/18 04:30:34;;;;;;;14.77;13.27;;;;;;;7.08;70.02;95697.47;5010672;28;20215;-81
2021/04/18 04:33:00;;;;;;;14.77;13.37;;;;;;;6.97;70.40;95690.03;5031898;28;20205;-81
2021/04/18 04:35:26;;;;;;;14.77;13.40;;;;;;;7.01;70.27;95708.44;5030641;28;20226;-81
2021/04/18 04:37:52;;;;;;;14.73;13.33;;;;;;;6.81;71.90;95706.09;5029860;28;20191;-82
2021/04/18 04:40:18;;;;;;;15.23;13.73;;;;;;;6.86;70.88;95705.63;5030588;28;20233;-82
2021/04/18 04:42:44;;;;;;;15.17;13.70;;;;;;;6.80;71.46;95708.78;5031036;28;20210;-80
2021/04/18 04:45:11;;;;;;;15.17;13.70;;;;;;;6.81;71.38;95706.09;5030185;28;20234;-82
2021/04/18 04:47:41;;;;;;;15.07;13.57;;;;;;;6.87;71.80;95715.72;5029448;28;20198;-79
2021/04/18 04:50:08;;;;;;;15.30;13.80;;;;;;;6.77;71.88;95709.09;5030406;28;20198;-82
2021/04/18 04:52:34;;;;;;;15.10;13.47;;;;;;;6.77;72.08;95712.44;5030151;28;20248;-80
2021/04/18 04:55:00;;;;;;;16.07;14.47;;;;;;;6.70;72.66;95714.03;5030753;28;20269;-82
2021/04/18 04:57:26;;;;;;;15.53;14.00;;;;;;;6.76;71.83;95704.91;5030466;28;20205;-82
2021/04/18 04:59:52;;;;;;;14.17;12.87;;;;;;;6.83;71.89;95714.41;5030507;28;20283;-82
2021/04/18 05:02:18;;;;;;;15.00;13.60;;;;;;;6.90;72.17;95714.63;5030582;28;20194;-82
2021/04/18 05:04:45;;;;;;;15.20;13.80;;;;;;;6.91;72.25;95716.25;5030416;28;20319;-80
2021/04/18 05:07:11;;;;;;;15.00;13.50;;;;;;;6.91;71.95;95719.59;5030782;28;20252;-84
2021/04/18 05:09:37;;;;;;;15.70;14.10;;;;;;;6.91;71.72;95727.28;5028803;28;20226;-81
2021/04/18 05:12:05;;;;;;;15.10;13.67;;;;;;;7.00;70.94;95723.00;5029823;28;20198;-81
2021/04/18 05:14:31;;;;;;;15.13;13.73;;;;;;;7.04;70.95;95724.31;5030040;28;20217;-81
2021/04/18 05:16:57;;;;;;;14.83;13.33;;;;;;;7.08;70.97;95722.25;5029838;28;20222;-82
2021/04/18 05:19:26;;;;;;;14.70;13.30;;;;;;;7.02;71.17;95725.41;5030131;28;20206;-81
2021/04/18 05:21:53;;;;;;;14.77;13.33;;;;;;;6.96;71.61;95729.38;5030183;28;20229;-80
2021/04/18 05:24:19;;;;;;;17.10;15.30;;;;;;;6.91;71.66;95734.16;5030793;28;20218;-81
2021/04/18 05:26:44;;;;;;;16.03;14.43;;;;;;;6.83;72.40;95728.97;5030371;28;20210;-80
2021/04/18 05:29:10;;;;;;;16.17;14.63;;;;;;;6.74;73.14;95728.09;5030816;28;20201;-82
2021/04/18 05:31:38;;;;;;;15.67;14.17;;;;;;;6.68;73.77;95722.78;5030163;28;20206;-82
2021/04/18 05:34:04;;;;;;;14.60;13.20;;;;;;;6.82;73.03;95735.03;5029869;28;20214;-81
2021/04/18 05:36:30;;;;;;;14.80;13.40;;;;;;;6.96;72.23;95734.47;5029733;28;20199;-81
2021/04/18 05:38:57;;;;;;;15.30;13.80;;;;;;;6.94;72.24;95736.38;5029572;28;20206;-81
2021/04/18 05:41:23;;;;;;;14.63;13.20;;;;;;;7.01;71.72;95732.28;5032807;28;20198;-81
2021/04/18 05:43:49;;;;;;;15.13;13.70;;;;;;;7.10;71.31;95740.81;5030052;28;20237;-80
2021/04/18 05:46:15;;;;;;;14.90;13.30;;;;;;;7.16;71.68;95742.75;5030190;28;20779;-82
2021/04/18 05:48:41;;;;;;;14.63;13.23;;;;;;;7.21;71.38;95743.94;5030204;28;20209;-81
2021/04/18 05:51:07;;;;;;;14.40;13.03;;;;;;;7.29;70.82;95745.75;5032266;28;20198;-82
2021/04/18 05:53:35;;;;;;;14.57;13.17;;;;;;;7.32;70.26;95747.97;5033277;28;20910;-81
2021/04/18 05:56:02;;;;;;;14.07;12.70;;;;;;;7.22;71.57;95747.28;5032746;28;20218;-81
2021/04/18 05:58:28;;;;;;;15.40;13.90;;;;;;;7.17;71.74;95750.31;5032109;28;20195;-80
2021/04/18 06:00:55;;;;;;;14.93;13.53;;;;;;;7.21;71.62;95748.25;5032953;28;20301;-81
2021/04/18 06:03:21;;;;;;;14.43;13.03;;;;;;;7.28;71.41;95739.81;5033291;28;20186;-80
2021/04/18 06:05:46;;;;;;;14.83;13.43;;;;;;;7.31;71.49;95741.28;5033823;28;20328;-80
2021/04/18 06:08:12;;;;;;;15.20;13.70;;;;;;;7.26;71.64;95744.28;5045816;28;20198;-82
2021/04/18 06:10:38;;;;;;;15.03;13.53;;;;;;;7.25;71.11;95752.13;5035463;28;20234;-82
2021/04/18 06:13:05;;;;;;;14.97;13.47;;;;;;;7.05;73.43;95748.16;5032908;28;20205;-81
2021/04/18 06:15:31;;;;;;;81.07;62.13;;;;;;;6.98;73.99;95762.50;5029288;28;20222;-81
2021/04/18 06:17:57;;;;;;;44.13;36.63;;;;;;;7.10;72.59;95757.00;5032357;28;20199;-80
2021/04/18 06:20:23;;;;;;;20.13;18.03;;;;;;;7.17;72.39;95757.97;5032731;28;20198;-82
2021/04/18 06:22:50;;;;;;;16.00;14.40;;;;;;;7.01;73.81;95751.97;5032288;28;20710;-81
2021/04/18 06:25:16;;;;;;;17.20;15.50;;;;;;;6.85;73.96;95761.13;5032747;28;20309;-81
2021/04/18 06:27:47;;;;;;;17.97;15.07;;;;;;;6.84;74.89;95751.06;5033162;28;20290;-82
2021/04/18 06:30:15;;;;;;;15.37;13.77;;;;;;;6.91;74.14;95758.00;5033106;28;20202;-80
2021/04/18 06:32:41;;;;;;;14.63;13.23;;;;;;;7.03;74.22;95755.19;5040896;28;20205;-81
2021/04/18 06:35:08;;;;;;;14.93;13.47;;;;;;;7.12;73.22;95751.72;5032333;28;20228;-81
2021/04/18 06:37:35;;;;;;;16.07;14.37;;;;;;;7.00;74.40;95750.34;5029466;28;20221;-82
2021/04/18 06:40:03;;;;;;;16.17;14.57;;;;;;;7.04;74.24;95756.78;5032446;28;20202;-81
2021/04/18 06:42:33;;;;;;;15.00;13.50;;;;;;;7.06;74.43;95755.69;5032694;28;20216;-80
2021/04/18 06:44:59;;;;;;;15.47;13.97;;;;;;;7.08;74.82;95753.78;5032113;28;20257;-80
2021/04/18 06:47:26;;;;;;;15.70;14.10;;;;;;;7.14;75.05;95752.34;5026158;28;20214;-82
2021/04/18 06:49:55;;;;;;;18.13;16.23;;;;;;;7.18;73.78;95748.53;5032914;28;20260;-82
2021/04/18 06:52:24;;;;;;;21.27;18.70;;;;;;;7.16;73.09;95751.25;5032987;28;20202;-80
2021/04/18 06:54:50;;;;;;;20.57;18.37;;;;;;;7.15;72.70;95751.41;5032454;28;20271;-82
2021/04/18 06:57:19;;;;;;;15.87;14.37;;;;;;;7.09;72.63;95750.28;5032070;28;20213;-82
2021/04/18 06:59:45;;;;;;;16.17;14.50;;;;;;;7.17;72.59;95752.06;5031781;28;20715;-81
2021/04/18 07:02:24;;;;;;;15.80;14.20;;;;;;;6.96;73.42;95752.41;5031651;28;20202;-80
2021/04/18 07:04:57;;;;;;;16.17;14.57;;;;;;;6.90;73.85;95747.91;5031597;28;20634;-80
2021/04/18 07:07:28;;;;;;;16.63;14.93;;;;;;;6.90;75.24;95753.81;5032070;28;20213;-81
2021/04/18 07:09:55;;;;;;;16.87;15.13;;;;;;;7.01;74.35;95751.97;5031306;28;20878;-82
2021/04/18 07:12:25;;;;;;;16.13;14.63;;;;;;;7.10;73.48;95753.63;5032407;28;20205;-80
2021/04/18 07:14:51;;;;;;;16.77;15.07;;;;;;;7.23;72.46;95754.81;5031993;28;20226;-80
2021/04/18 07:17:17;;;;;;;16.13;14.60;;;;;;;7.25;72.93;95752.13;5032137;28;20245;-81
2021/04/18 07:19:44;;;;;;;16.03;14.33;;;;;;;7.30;71.53;95754.22;5031588;28;20216;-81
2021/04/18 07:22:11;;;;;;;16.23;14.63;;;;;;;7.32;71.81;95747.97;5031798;28;20578;-80
2021/04/18 07:24:48;;;;;;;16.87;15.20;;;;;;;7.45;71.45;95748.38;5031784;28;20238;-81
2021/04/18 07:27:14;;;;;;;16.67;14.97;;;;;;;7.48;71.51;95755.75;5031921;28;20209;-81
2021/04/18 07:29:40;;;;;;;16.77;15.10;;;;;;;7.56;71.27;95742.97;5031402;28;20233;-79
2021/04/18 07:32:20;;;;;;;17.07;15.47;;;;;;;7.58;71.34;95745.38;5032137;28;20213;-80
2021/04/18 07:34:47;;;;;;;17.47;15.47;;;;;;;7.59;71.29;95749.56;5032039;28;20230;-81
2021/04/18 07:37:16;;;;;;;17.47;15.73;;;;;;;7.62;70.69;95751.81;5032137;28;20206;-80
2021/04/18 07:39:44;;;;;;;17.73;15.83;;;;;;;7.63;70.38;95751.66;5031501;28;20213;-82
2021/04/18 07:42:26;;;;;;;17.17;15.47;;;;;;;7.54;70.81;95750.00;5031131;28;20206;-80
2021/04/18 07:44:55;;;;;;;18.93;16.97;;;;;;;7.59;71.08;95745.22;5031051;28;20230;-82
2021/04/18 07:47:21;;;;;;;18.10;16.20;;;;;;;7.70;70.85;95749.25;5031332;28;20209;-81
2021/04/18 07:49:48;;;;;;;17.37;15.67;;;;;;;7.76;70.88;95751.22;5030472;28;20206;-81
2021/04/18 07:52:16;;;;;;;17.50;15.63;;;;;;;7.82;70.10;95744.69;5031429;28;20206;-81
2021/04/18 07:54:43;;;;;;;17.83;16.03;;;;;;;7.86;69.76;95748.53;5031349;28;20970;-80
2021/04/18 07:57:09;;;;;;;16.60;15.00;;;;;;;7.74;70.16;95745.44;5031475;28;20198;-80
2021/04/18 07:59:35;;;;;;;18.10;16.30;;;;;;;7.74;70.60;95748.00;5030864;28;20213;-81
2021/04/18 08:02:01;;;;;;;17.30;15.60;;;;;;;7.71;71.63;95750.88;5033044;28;20223;-80
2021/04/18 08:04:29;;;;;;;17.00;15.40;;;;;;;7.73;71.13;95748.97;5034423;28;20245;-81
2021/04/18 08:06:55;;;;;;;17.93;16.13;;;;;;;7.79;70.66;95745.78;5032446;28;20277;-82
2021/04/18 08:09:23;;;;;;;16.20;14.63;;;;;;;7.90;70.54;95750.63;5026937;28;20198;-79
2021/04/18 08:12:14;;;;;;;16.73;15.17;;;;;;;7.98;69.58;95740.41;5032251;28;20214;-80
2021/04/18 08:14:42;;;;;;;16.77;15.17;;;;;;;8.02;70.04;95742.66;5033040;28;20305;-80
2021/04/18 08:17:10;;;;;;;17.97;16.20;;;;;;;8.02;71.31;95752.91;5038808;28;20272;-80
2021/04/18 08:19:38;;;;;;;17.00;15.40;;;;;;;8.02;70.95;95743.47;5052728;28;20217;-81
2021/04/18 08:22:05;;;;;;;17.00;15.30;;;;;;;8.05;70.48;95752.59;5036097;28;20558;-80
2021/04/18 08:24:34;;;;;;;17.03;15.40;;;;;;;8.05;70.23;95750.84;5031779;28;20259;-82
2021/04/18 08:27:03;;;;;;;16.73;15.13;;;;;;;8.10;71.31;95753.72;5032251;28;20855;-81
2021/04/18 08:29:30;;;;;;;18.50;16.60;;;;;;;8.05;71.63;95753.41;5021835;28;20202;-80
2021/04/18 08:32:02;;;;;;;18.00;16.20;;;;;;;8.11;71.38;95747.63;5031732;28;20237;-80
2021/04/18 08:34:30;;;;;;;18.40;16.53;;;;;;;8.13;71.83;95755.97;5032073;28;20228;-82
2021/04/18 08:36:58;;;;;;;17.80;16.10;;;;;;;8.10;70.02;95751.16;5032361;28;20816;-81
2021/04/18 08:39:29;;;;;;;18.43;16.63;;;;;;;8.12;70.72;95754.38;5031840;28;20202;-81
2021/04/18 08:41:57;;;;;;;19.60;17.63;;;;;;;8.13;71.04;95755.16;5031963;28;20194;-81
2021/04/18 08:44:26;;;;;;;19.93;17.83;;;;;;;8.17;70.21;95752.13;5031994;28;20218;-81
2021/04/18 08:46:55;;;;;;;19.97;17.97;;;;;;;8.14;70.58;95751.66;5032380;28;20232;-81
2021/04/18 08:49:30;;;;;;;19.93;17.97;;;;;;;8.16;70.34;95760.00;5031770;28;20324;-82
2021/04/18 08:51:56;;;;;;;20.80;18.70;;;;;;;8.13;71.32;95766.22;5032130;28;20198;-81
2021/04/18 08:54:24;;;;;;;20.30;18.20;;;;;;;8.06;71.29;95760.13;5031766;28;20233;-81
2021/04/18 08:56:52;;;;;;;21.67;19.37;;;;;;;8.07;71.77;95768.63;5031672;28;20613;-82
2021/04/18 08:59:20;;;;;;;20.67;18.57;;;;;;;8.18;71.10;95758.88;5031480;28;20202;-82
2021/04/18 09:01:54;;;;;;;20.73;18.63;;;;;;;8.28;70.77;95763.84;5031476;28;20240;-81
2021/04/18 09:04:23;;;;;;;20.13;18.13;;;;;;;8.35;70.69;95767.44;5032313;28;20222;-80
2021/04/18 09:06:49;;;;;;;20.77;18.67;;;;;;;8.41;70.41;95771.13;5031892;28;20229;-81
2021/04/18 09:09:17;;;;;;;20.00;17.87;;;;;;;8.47;70.96;95771.28;5029680;28;20209;-80
2021/04/18 09:11:47;;;;;;;20.93;18.73;;;;;;;8.23;66.76;95773.81;5030578;28;20233;-81
2021/04/18 09:14:16;;;;;;;21.53;19.27;;;;;;;8.21;68.84;95773.16;5032033;28;20233;-80
2021/04/18 09:16:43;;;;;;;20.93;18.80;;;;;;;8.25;70.10;95772.69;5031894;28;20198;-82
2021/04/18 09:19:22;;;;;;;19.50;17.50;;;;;;;8.29;70.47;95762.88;5030503;28;20233;-80
2021/04/18 09:21:54;;;;;;;21.43;19.23;;;;;;;8.38;70.87;95763.75;5033370;28;20205;-82
2021/04/18 09:24:20;;;;;;;22.27;20.07;;;;;;;8.48;70.85;95764.38;5012488;28;20665;-81
2021/04/18 09:26:58;;;;;;;21.47;19.33;;;;;;;8.60;70.36;95768.28;5015774;28;20377;-81
2021/04/18 09:29:27;;;;;;;23.70;21.27;;;;;;;8.58;69.91;95765.06;5015061;28;20203;-81
2021/04/18 09:31:59;;;;;;;22.67;20.37;;;;;;;8.58;69.93;95777.88;5015354;28;20195;-82
2021/04/18 09:34:25;;;;;;;23.13;20.83;;;;;;;8.57;69.75;95768.59;5017486;28;20538;-82
2021/04/18 09:36:53;;;;;;;23.80;21.30;;;;;;;8.65;70.47;95777.09;5033964;28;20198;-81
2021/04/18 09:39:20;;;;;;;24.40;21.90;;;;;;;8.61;69.92;95772.44;5033970;28;20199;-80
2021/04/18 09:41:48;;;;;;;23.47;21.17;;;;;;;8.64;68.35;95767.78;5034394;28;20205;-82
2021/04/18 09:44:28;;;;;;;23.43;21.03;;;;;;;8.77;69.00;95769.06;5034136;28;20218;-81
2021/04/18 09:47:00;;;;;;;23.10;20.77;;;;;;;8.78;69.07;95770.69;5034895;28;20214;-82
2021/04/18 09:49:26;;;;;;;23.37;21.07;;;;;;;8.78;69.19;95770.69;5036581;28;20272;-81
2021/04/18 09:51:58;;;;;;;23.37;21.07;;;;;;;8.74;68.75;95770.19;5034136;28;20198;-82
2021/04/18 09:54:30;;;;;;;24.70;22.30;;;;;;;8.44;71.36;95769.06;5033619;28;20214;-82
2021/04/18 09:57:30;;;;;;;23.47;21.07;;;;;;;8.50;69.62;95772.72;5034301;28;20297;-82
2021/04/18 10:00:07;;;;;;;22.17;19.97;;;;;;;8.58;68.98;95765.84;5033875;28;20204;-81
2021/04/18 10:02:33;;;;;;;21.23;19.13;;;;;;;8.68;68.59;95772.59;5040975;28;20206;-82
2021/04/18 10:05:12;;;;;;;21.07;19.07;;;;;;;8.66;66.73;95770.97;5030146;28;20222;-81
2021/04/18 10:07:39;;;;;;;19.30;17.43;;;;;;;8.62;66.82;95764.59;5034094;28;20277;-82
2021/04/18 10:10:06;;;;;;;20.03;17.93;;;;;;;8.70;66.91;95765.53;5032601;28;20248;-83
2021/04/18 10:12:46;;;;;;;19.50;17.60;;;;;;;8.80;66.21;95767.00;5034225;28;20823;-82
2021/04/18 10:15:12;;;;;;;19.50;17.60;;;;;;;8.85;67.80;95767.28;5034484;28;20210;-81
2021/04/18 10:17:39;;;;;;;19.43;17.53;;;;;;;8.88;67.87;95761.84;5033991;28;20224;-82
2021/04/18 10:20:07;;;;;;;19.07;17.27;;;;;;;8.98;68.49;95761.69;5033584;28;20218;-83
2021/04/18 10:22:33;;;;;;;20.10;18.10;;;;;;;9.05;68.14;95762.63;5033539;28;20193;-82
2021/04/18 10:25:00;;;;;;;19.80;17.90;;;;;;;8.93;67.36;95763.94;5033986;28;20288;-81
2021/04/18 10:27:29;;;;;;;20.10;18.10;;;;;;;8.81;67.50;95760.91;5033337;28;20226;-82
2021/04/18 10:29:55;;;;;;;18.83;17.03;;;;;;;8.91;67.18;95758.94;5032147;28;20187;-80
2021/04/18 10:32:22;;;;;;;18.63;16.83;;;;;;;8.97;66.18;95760.88;5013411;28;20199;-81
2021/04/18 10:34:50;;;;;;;17.57;15.87;;;;;;;9.00;65.31;95759.75;5032110;28;20233;-82
2021/04/18 10:37:17;;;;;;;16.43;14.90;;;;;;;9.02;64.88;95752.69;5037536;28;20206;-82
2021/04/18 10:39:44;;;;;;;16.53;14.93;;;;;;;8.94;64.83;95755.25;5032338;28;20194;-82
2021/04/18 10:42:11;;;;;;;15.23;13.83;;;;;;;9.01;64.78;95766.50;5032260;28;20197;-81
2021/04/18 10:44:37;;;;;;;16.83;15.23;;;;;;;8.95;64.56;95767.13;5033583;28;20214;-82
2021/04/18 10:47:08;;;;;;;16.00;14.40;;;;;;;9.00;67.65;95759.75;5033751;28;20238;-82
2021/04/18 10:49:34;;;;;;;14.67;12.60;;;;;;;9.20;71.41;95760.22;5032298;28;20206;-81
2021/04/18 10:52:01;;;;;;;18.03;16.30;;;;;;;9.30;65.65;95758.25;5033889;28;20221;-82
2021/04/18 10:54:27;;;;;;;18.57;16.77;;;;;;;9.18;66.00;95755.25;5033753;28;20233;-81
2021/04/18 10:56:54;;;;;;;18.93;17.13;;;;;;;9.24;66.03;95746.84;5033627;28;20217;-82
2021/04/18 10:59:22;;;;;;;18.30;16.60;;;;;;;9.26;66.00;95752.63;5032017;28;20851;-82
2021/04/18 11:01:48;;;;;;;18.23;16.53;;;;;;;9.25;65.36;95753.59;5032509;28;20191;-82
2021/04/18 11:04:15;;;;;;;18.40;16.60;;;;;;;9.14;64.69;95750.59;5032778;28;20221;-82
2021/04/18 11:06:41;;;;;;;17.67;15.90;;;;;;;9.13;64.39;95747.22;5032893;28;20226;-82
2021/04/18 11:09:08;;;;;;;17.30;15.60;;;;;;;9.18;64.48;95747.53;5032429;28;20226;-81
2021/04/18 11:11:35;;;;;;;16.77;15.17;;;;;;;9.14;63.39;95746.25;5031927;28;20218;-82
2021/04/18 11:14:01;;;;;;;17.47;15.77;;;;;;;9.13;63.16;95749.78;5032110;28;20209;-82
2021/04/18 11:16:27;;;;;;;18.43;16.63;;;;;;;9.12;63.55;95748.19;5032417;28;20596;-82
2021/04/18 11:18:54;;;;;;;17.97;16.10;;;;;;;9.04;64.85;95744.84;5031076;28;20593;-82
2021/04/18 11:21:20;;;;;;;18.17;16.47;;;;;;;9.08;63.88;95746.88;5030763;28;20253;-82
2021/04/18 11:23:46;;;;;;;17.83;16.03;;;;;;;9.10;64.36;95750.09;5031034;28;20201;-81
2021/04/18 11:26:13;;;;;;;18.57;16.67;;;;;;;9.26;64.31;95741.56;5031439;28;20218;-81
2021/04/18 11:28:41;;;;;;;18.53;16.83;;;;;;;9.38;62.91;95740.25;5031047;28;20190;-82